Time;durP1;ratioP1;P1;durP2;ratioP2;P2;SDS_P1;SDS_P2;PMS_P1;PMS_P2;Temp;Humidity;BMP_temperature;BMP_pressure;BME280_temperature;BME280_humidity;BME280_pressure;Samples;Min_cycle;Max_cycle;Signal;HPM_P1;HPM_P2
2021/10/02 00:45:29;;;;;;;35.10;27.63;;;;;;;9.83;88.12;99472.14;2104047;84;21031;-79
2021/10/02 00:48:29;;;;;;;39.47;27.33;;;;;;;9.83;88.03;99474.75;2104088;85;20905;-79
2021/10/02 00:51:30;;;;;;;35.60;26.30;;;;;;;9.80;87.95;99473.80;2104706;84;20980;-80
2021/10/02 00:54:31;;;;;;;36.13;25.30;;;;;;;9.81;88.00;99470.34;2104368;85;20921;-79
2021/10/02 00:57:31;;;;;;;39.53;25.23;;;;;;;9.83;87.94;99463.02;2104476;84;20996;-79
2021/10/02 01:00:32;;;;;;;44.27;27.43;;;;;;;9.84;88.07;99465.20;2104403;84;21311;-79
2021/10/02 01:03:32;;;;;;;41.10;26.33;;;;;;;9.83;87.96;99462.14;2103972;84;20996;-79
2021/10/02 01:06:33;;;;;;;32.33;22.50;;;;;;;9.83;87.94;99456.92;2063469;84;20985;-78
2021/10/02 01:09:33;;;;;;;30.50;22.43;;;;;;;9.82;88.10;99453.85;2061277;86;21024;-78
2021/10/02 01:12:34;;;;;;;31.30;23.00;;;;;;;9.82;88.14;99456.46;2061287;86;20973;-79
2021/10/02 01:15:34;;;;;;;31.63;24.17;;;;;;;9.83;87.81;99450.41;2061423;86;21008;-80
2021/10/02 01:18:35;;;;;;;32.63;24.07;;;;;;;9.79;87.59;99453.78;2061338;85;20969;-80
2021/10/02 01:21:35;;;;;;;33.17;23.13;;;;;;;9.75;87.55;99453.24;2060888;86;20980;-79
2021/10/02 01:24:36;;;;;;;34.33;22.73;;;;;;;9.72;87.58;99454.47;2061532;86;20977;-81
2021/10/02 01:27:37;;;;;;;25.73;21.13;;;;;;;9.66;87.85;99454.32;2061150;85;20993;-80
2021/10/02 01:31:00;;;;;;;31.17;21.97;;;;;;;9.60;87.65;99448.53;2061022;85;20968;-79
2021/10/02 01:37:14;;;;;;;31.93;21.87;;;;;;;9.51;87.94;99447.84;2053020;86;20944;-81
2021/10/02 01:50:02;;;;;;;31.47;22.57;;;;;;;9.63;87.75;99446.42;2061122;86;21012;-78
2021/10/02 01:53:03;;;;;;;31.00;22.50;;;;;;;9.66;87.67;99447.80;2061421;86;20985;-79
2021/10/02 01:56:04;;;;;;;29.03;20.83;;;;;;;9.66;87.69;99448.69;2060971;86;21004;-79
2021/10/02 01:59:05;;;;;;;29.17;22.00;;;;;;;9.69;87.68;99444.84;2061192;86;20936;-80
2021/10/02 02:02:05;;;;;;;25.93;18.33;;;;;;;9.69;87.48;99445.27;2061785;85;20949;-78
2021/10/02 02:05:07;;;;;;;27.23;21.07;;;;;;;9.68;87.42;99446.11;2072453;85;21395;-79
2021/10/02 02:08:07;;;;;;;29.33;21.40;;;;;;;9.64;87.30;99440.37;2090837;85;20954;-79
2021/10/02 02:11:08;;;;;;;26.57;20.10;;;;;;;9.60;87.25;99439.83;2090728;85;21032;-79
2021/10/02 02:14:09;;;;;;;29.07;22.73;;;;;;;9.53;87.45;99429.64;2091731;85;20917;-80
2021/10/02 02:17:09;;;;;;;32.97;21.37;;;;;;;9.49;87.49;99435.62;2092336;85;21103;-80
2021/10/02 02:20:10;;;;;;;33.83;19.57;;;;;;;9.46;87.69;99419.48;2091231;85;21358;-80
2021/10/02 02:23:11;;;;;;;29.47;22.73;;;;;;;9.43;87.68;99419.41;2091685;85;20989;-79
2021/10/02 02:26:11;;;;;;;29.47;22.97;;;;;;;9.43;87.72;99423.31;2059692;87;20981;-79
2021/10/02 02:29:12;;;;;;;26.30;20.97;;;;;;;9.45;87.69;99417.72;2059784;87;20984;-79
2021/10/02 02:32:13;;;;;;;29.27;20.33;;;;;;;9.47;87.60;99417.34;2059608;86;20961;-80
2021/10/02 02:35:13;;;;;;;31.20;23.50;;;;;;;9.51;87.72;99414.39;2091009;85;20976;-78
2021/10/02 02:38:14;;;;;;;33.23;24.37;;;;;;;9.48;87.79;99412.59;2091084;85;20953;-80
2021/10/02 02:41:14;;;;;;;33.97;24.70;;;;;;;9.43;87.79;99408.98;2058653;87;21405;-79
2021/10/02 02:44:15;;;;;;;30.07;23.07;;;;;;;9.40;87.72;99405.42;2091305;85;21324;-79
2021/10/02 02:47:15;;;;;;;33.60;25.10;;;;;;;9.39;87.73;99402.35;2091034;85;21008;-80
2021/10/02 02:50:16;;;;;;;32.53;25.27;;;;;;;9.38;87.73;99401.89;2091033;85;20972;-79
2021/10/02 02:53:16;;;;;;;33.43;24.37;;;;;;;9.39;87.98;99406.26;2059175;86;20945;-80
2021/10/02 02:56:19;;;;;;;30.80;24.27;;;;;;;9.35;87.72;99397.48;2058900;86;20966;-79
2021/10/02 02:59:20;;;;;;;28.67;22.40;;;;;;;9.34;87.76;99404.84;2091171;85;21440;-80
2021/10/02 03:02:20;;;;;;;31.37;24.13;;;;;;;9.34;87.75;99406.56;2091333;85;20945;-79
2021/10/02 03:05:21;;;;;;;32.47;24.73;;;;;;;9.33;87.79;99398.29;2059179;85;21449;-80
2021/10/02 03:08:24;;;;;;;33.07;22.43;;;;;;;9.35;87.81;99409.21;2058841;86;20989;-79
2021/10/02 03:11:25;;;;;;;35.17;23.17;;;;;;;9.39;87.83;99403.66;2058613;86;20960;-79
2021/10/02 03:14:25;;;;;;;35.60;25.00;;;;;;;9.40;87.76;99408.91;2058202;86;20973;-79
2021/10/02 03:17:26;;;;;;;41.50;25.37;;;;;;;9.41;87.67;99401.97;2057965;86;21040;-79
2021/10/02 03:20:26;;;;;;;36.57;25.07;;;;;;;9.43;87.76;99399.86;2058405;86;21293;-79
2021/10/02 03:23:27;;;;;;;33.27;24.93;;;;;;;9.43;87.79;99402.47;2058966;86;20961;-80
2021/10/02 03:26:30;;;;;;;37.07;25.00;;;;;;;9.47;87.73;99399.09;2058642;86;20941;-79
2021/10/02 03:29:30;;;;;;;33.30;24.40;;;;;;;9.46;87.58;99398.64;2058521;86;20941;-79
2021/10/02 03:32:31;;;;;;;30.07;24.13;;;;;;;9.40;87.50;99402.39;2058062;86;20945;-80
2021/10/02 03:35:31;;;;;;;31.57;24.00;;;;;;;9.39;87.51;99405.84;2057811;86;20953;-79
2021/10/02 03:38:32;;;;;;;37.40;25.40;;;;;;;9.40;87.69;99402.39;2058058;86;20989;-80
2021/10/02 03:41:32;;;;;;;35.93;25.73;;;;;;;9.38;87.42;99401.47;2058013;86;20930;-78
2021/10/02 03:44:33;;;;;;;48.07;33.10;;;;;;;9.41;87.38;99402.84;2057805;86;20989;-79
2021/10/02 03:47:33;;;;;;;37.33;24.67;;;;;;;9.44;87.40;99399.44;2057609;86;21463;-79
2021/10/02 03:50:34;;;;;;;36.87;25.70;;;;;;;9.42;87.34;99402.43;2057965;86;20980;-80
2021/10/02 03:53:35;;;;;;;36.40;24.40;;;;;;;9.40;87.25;99395.88;2057792;86;21001;-79
2021/10/02 03:56:36;;;;;;;26.47;22.27;;;;;;;9.38;87.26;99394.95;2056914;87;21104;-80
2021/10/02 03:59:37;;;;;;;29.80;22.57;;;;;;;9.40;87.20;99393.69;2057494;86;21328;-80
2021/10/02 04:02:37;;;;;;;29.23;23.87;;;;;;;9.43;87.22;99398.56;2057621;86;20930;-80
2021/10/02 04:05:38;;;;;;;32.90;23.47;;;;;;;9.45;87.01;99398.59;2058540;85;20977;-79
2021/10/02 04:08:38;;;;;;;39.53;22.50;;;;;;;9.48;87.03;99394.34;2091654;85;20981;-79
2021/10/02 04:11:40;;;;;;;33.20;24.43;;;;;;;9.52;87.00;99390.97;2091066;85;20989;-80
2021/10/02 04:14:40;;;;;;;36.30;24.40;;;;;;;9.54;86.95;99387.12;2058563;85;20985;-79
2021/10/02 04:17:40;;;;;;;31.53;24.33;;;;;;;9.57;86.90;99385.91;2058441;86;21387;-79
2021/10/02 04:20:41;;;;;;;41.07;24.33;;;;;;;9.60;86.77;99390.30;2058117;86;21395;-79
2021/10/02 04:23:41;;;;;;;34.43;24.90;;;;;;;9.58;86.58;99392.88;2090364;85;21184;-79
2021/10/02 04:26:42;;;;;;;43.13;25.17;;;;;;;9.51;86.56;99393.12;2090485;84;20953;-78
2021/10/02 04:29:43;;;;;;;52.43;33.03;;;;;;;9.50;86.62;99392.66;2090209;85;21008;-78
2021/10/02 04:32:43;;;;;;;49.57;37.07;;;;;;;9.46;86.74;99399.94;2090230;85;21013;-78
2021/10/02 04:35:43;;;;;;;60.17;26.43;;;;;;;9.43;86.76;99392.05;2090718;85;20964;-79
2021/10/02 04:38:44;;;;;;;40.50;24.10;;;;;;;9.42;86.87;99385.07;2090286;85;20990;-78
2021/10/02 04:41:44;;;;;;;30.70;23.10;;;;;;;9.37;87.12;99385.38;2058283;86;20949;-79
2021/10/02 04:44:45;;;;;;;39.10;25.60;;;;;;;9.29;87.28;99383.00;2058699;86;20965;-80
2021/10/02 04:47:45;;;;;;;36.80;25.10;;;;;;;9.21;87.17;99376.72;2058424;86;21443;-78
2021/10/02 04:50:46;;;;;;;41.90;23.20;;;;;;;9.18;87.15;99379.23;2058840;86;20989;-80
2021/10/02 04:53:46;;;;;;;32.73;24.10;;;;;;;9.15;87.65;99383.95;2058003;86;20946;-80
2021/10/02 04:56:47;;;;;;;41.27;27.23;;;;;;;9.14;87.39;99386.09;2057725;86;21009;-79
2021/10/02 04:59:47;;;;;;;58.77;37.10;;;;;;;9.14;87.41;99379.58;2057808;86;20930;-79
2021/10/02 05:02:48;;;;;;;42.37;25.23;;;;;;;9.10;87.76;99378.16;2090059;85;20993;-80
2021/10/02 05:05:48;;;;;;;39.83;24.73;;;;;;;9.08;87.50;99379.84;2078517;84;21050;-79
2021/10/02 05:08:50;;;;;;;29.87;22.40;;;;;;;9.12;87.70;99380.38;2059586;86;20949;-78
2021/10/02 05:11:51;;;;;;;37.17;25.17;;;;;;;9.17;87.57;99377.06;2058415;85;20988;-78
2021/10/02 05:14:51;;;;;;;33.27;24.47;;;;;;;9.20;87.34;99384.07;2058730;86;20989;-78
2021/10/02 05:17:52;;;;;;;31.87;23.43;;;;;;;9.24;87.24;99380.70;2058692;86;21726;-79
2021/10/02 05:20:53;;;;;;;28.03;23.17;;;;;;;9.28;87.15;99379.94;2059598;86;20953;-80
2021/10/02 05:23:53;;;;;;;32.37;24.17;;;;;;;9.33;87.01;99383.53;2059849;85;20953;-79
2021/10/02 05:26:54;;;;;;;29.20;22.63;;;;;;;9.32;86.85;99365.27;2060466;86;20980;-79
2021/10/02 05:29:54;;;;;;;27.40;21.67;;;;;;;9.27;86.78;99354.73;2061220;85;20983;-78
2021/10/02 05:32:55;;;;;;;25.33;20.83;;;;;;;9.17;86.86;99361.43;2061042;86;20980;-79
2021/10/02 05:35:55;;;;;;;26.10;19.27;;;;;;;9.12;87.00;99370.84;2061677;86;20957;-79
2021/10/02 05:38:56;;;;;;;27.37;20.73;;;;;;;9.15;87.05;99369.63;2061661;86;21309;-79
2021/10/02 05:41:56;;;;;;;27.43;20.53;;;;;;;9.22;87.03;99366.34;2061706;85;21376;-79
2021/10/02 05:44:57;;;;;;;25.63;19.90;;;;;;;9.29;86.92;99356.06;2061348;86;21006;-79
2021/10/02 05:47:57;;;;;;;23.40;18.40;;;;;;;9.30;86.77;99356.11;2060705;85;21064;-78
2021/10/02 05:50:58;;;;;;;26.00;19.13;;;;;;;9.35;86.64;99361.44;2060975;85;21014;-79
2021/10/02 05:53:59;;;;;;;24.57;18.87;;;;;;;9.39;86.58;99351.13;2060923;85;20933;-79
2021/10/02 05:56:59;;;;;;;23.83;18.17;;;;;;;9.45;86.40;99361.70;2061220;86;21323;-78
2021/10/02 05:59:59;;;;;;;18.23;15.80;;;;;;;9.50;86.22;99357.89;2061376;86;21395;-79
2021/10/02 06:03:01;;;;;;;22.93;17.40;;;;;;;9.58;86.06;99365.52;2061514;85;20968;-78
2021/10/02 06:06:02;;;;;;;22.43;18.00;;;;;;;9.68;85.85;99367.49;2061006;85;21048;-79
2021/10/02 06:09:02;;;;;;;37.17;30.63;;;;;;;9.76;85.61;99363.76;2061084;86;20957;-79
2021/10/02 06:12:03;;;;;;;20.17;17.47;;;;;;;9.89;85.52;99364.50;2060755;85;20969;-79
2021/10/02 06:15:03;;;;;;;19.93;16.53;;;;;;;9.97;85.14;99362.06;2061401;85;20993;-79
2021/10/02 06:18:04;;;;;;;19.50;16.23;;;;;;;10.06;84.87;99362.27;2060488;86;20993;-79
2021/10/02 06:21:06;;;;;;;22.90;18.40;;;;;;;10.10;84.52;99352.36;2060601;86;20937;-78
2021/10/02 06:24:06;;;;;;;18.60;16.33;;;;;;;10.16;84.57;99362.92;2060005;86;21025;-79
2021/10/02 06:27:07;;;;;;;19.97;16.83;;;;;;;10.21;84.27;99364.81;2060855;86;20965;-80
2021/10/02 06:30:07;;;;;;;21.53;17.73;;;;;;;10.20;83.98;99355.23;2060480;85;21000;-79
2021/10/02 06:33:08;;;;;;;18.83;16.77;;;;;;;10.19;84.03;99361.26;2060883;85;20952;-79
2021/10/02 06:36:08;;;;;;;21.33;17.03;;;;;;;10.39;84.18;99356.49;2061065;85;20909;-79
2021/10/02 06:39:09;;;;;;;18.97;16.47;;;;;;;10.62;83.78;99351.77;2061566;86;21375;-78
2021/10/02 06:42:10;;;;;;;17.80;15.57;;;;;;;10.81;83.21;99349.96;2061372;86;21384;-79
2021/10/02 06:45:10;;;;;;;17.95;15.50;;;;;;;11.01;82.86;99355.98;2061247;85;20985;-78
2021/10/02 06:48:11;;;;;;;16.73;14.90;;;;;;;11.21;82.24;99349.80;2060895;86;21009;-78
2021/10/02 06:51:11;;;;;;;18.20;15.65;;;;;;;11.28;81.80;99340.81;2061128;86;20961;-79
2021/10/02 06:54:12;;;;;;;16.75;14.65;;;;;;;11.45;81.71;99353.73;2061512;86;21352;-79
2021/10/02 06:57:13;;;;;;;16.85;14.75;;;;;;;11.69;81.06;99349.75;2061053;86;20964;-78
2021/10/02 07:00:13;;;;;;;15.85;13.50;;;;;;;11.92;79.80;99356.23;2060339;85;20965;-78
2021/10/02 07:03:14;;;;;;;15.75;14.05;;;;;;;12.23;79.63;99358.00;2060452;85;20989;-78
2021/10/02 07:06:15;;;;;;;15.23;13.62;;;;;;;12.53;78.79;99356.20;2073167;84;20999;-77
2021/10/02 07:09:15;;;;;;;14.98;13.48;;;;;;;12.61;77.49;99354.55;2098548;85;20983;-78
2021/10/02 07:12:16;;;;;;;15.95;12.63;;;;;;;12.54;77.94;99352.30;2098546;85;20933;-79
2021/10/02 07:15:16;;;;;;;13.35;11.88;;;;;;;12.56;77.37;99357.12;2098762;85;20949;-78
2021/10/02 07:18:17;;;;;;;12.95;11.65;;;;;;;12.60;77.06;99351.48;2098649;85;20996;-80
2021/10/02 07:21:17;;;;;;;22.52;20.10;;;;;;;12.67;76.95;99359.44;2098595;85;21008;-78
2021/10/02 07:24:18;;;;;;;20.95;13.78;;;;;;;12.72;75.96;99355.13;2098434;85;20980;-79
2021/10/02 07:27:18;;;;;;;13.10;11.25;;;;;;;12.86;76.72;99364.45;2099102;85;20988;-80
2021/10/02 07:30:19;;;;;;;12.70;11.40;;;;;;;13.01;75.43;99366.38;2099601;85;21017;-80
2021/10/02 07:33:19;;;;;;;11.75;10.35;;;;;;;13.07;76.09;99357.27;2099206;85;20981;-78
2021/10/02 07:36:20;;;;;;;12.35;10.50;;;;;;;13.14;74.75;99354.28;2099159;85;21359;-79
2021/10/02 07:39:21;;;;;;;17.55;10.82;;;;;;;13.17;73.83;99349.09;2099238;85;20948;-79
2021/10/02 07:42:21;;;;;;;11.83;9.90;;;;;;;13.25;75.15;99345.69;2098686;85;21029;-79
2021/10/02 07:45:22;;;;;;;14.50;11.00;;;;;;;13.33;74.47;99349.69;2098737;84;20988;-78
2021/10/02 07:48:24;;;;;;;13.00;11.03;;;;;;;13.43;74.03;99352.83;2098489;85;20997;-79
2021/10/02 07:51:25;;;;;;;11.53;10.43;;;;;;;13.57;73.96;99354.25;2098758;85;21032;-79
2021/10/02 07:54:25;;;;;;;11.63;10.53;;;;;;;13.70;73.12;99354.36;2098518;85;21371;-78
2021/10/02 07:57:26;;;;;;;11.10;10.00;;;;;;;13.81;73.19;99354.87;2097661;84;20988;-79
2021/10/02 08:00:26;;;;;;;11.65;10.60;;;;;;;13.93;72.49;99362.42;2097910;85;21061;-77
2021/10/02 08:03:28;;;;;;;13.98;10.40;;;;;;;13.95;72.22;99354.13;2097902;85;20945;-78
2021/10/02 08:06:30;;;;;;;12.15;10.88;;;;;;;13.94;71.57;99353.69;2086418;84;21004;-80
2021/10/02 08:09:30;;;;;;;11.95;10.55;;;;;;;14.17;71.14;99350.31;2098927;85;21004;-77
2021/10/02 08:12:31;;;;;;;11.48;10.38;;;;;;;14.17;71.14;99350.31;2099019;85;20965;-79
2021/10/02 08:15:32;;;;;;;10.95;9.60;;;;;;;14.30;71.89;99343.82;2099643;85;20933;-80
2021/10/02 08:18:37;;;;;;;10.70;9.30;;;;;;;14.61;71.02;99340.91;2057651;86;21035;-78
2021/10/02 08:21:35;;;;;;;11.22;10.23;;;;;;;14.61;71.02;99340.91;2057864;86;20955;-79
2021/10/02 08:24:36;;;;;;;11.90;9.15;;;;;;;14.76;70.30;99349.31;2098905;84;20944;-81
2021/10/02 08:27:37;;;;;;;13.85;9.75;;;;;;;14.85;69.62;99348.47;2057920;87;21072;-80
2021/10/02 08:30:38;;;;;;;11.93;9.88;;;;;;;14.97;70.20;99355.06;2058163;86;20943;-79
2021/10/02 08:33:38;;;;;;;12.53;9.45;;;;;;;15.12;69.73;99351.59;2058315;87;20991;-80
2021/10/02 08:36:39;;;;;;;14.60;9.10;;;;;;;15.35;69.05;99344.61;2058389;86;21284;-79
2021/10/02 08:39:39;;;;;;;9.70;8.75;;;;;;;15.35;69.05;99344.61;2058345;86;20948;-80
2021/10/02 08:42:40;;;;;;;12.23;8.93;;;;;;;15.51;68.29;99350.30;2058277;86;20952;-78
2021/10/02 08:45:40;;;;;;;10.03;8.00;;;;;;;15.68;67.91;99342.47;2058262;86;21072;-78
2021/10/02 08:48:40;;;;;;;10.50;8.35;;;;;;;15.75;66.70;99343.34;2058026;86;20996;-79
2021/10/02 08:51:46;;;;;;;10.75;8.65;;;;;;;15.87;67.35;99342.02;2058373;86;20968;-78
2021/10/02 08:54:43;;;;;;;9.18;8.28;;;;;;;16.04;65.95;99340.66;2057877;86;20956;-78
2021/10/02 08:57:44;;;;;;;8.78;7.78;;;;;;;16.04;65.34;99328.81;2058372;86;20916;-78
2021/10/02 09:00:44;;;;;;;9.05;8.15;;;;;;;16.07;65.31;99324.86;2057934;86;20944;-79
2021/10/02 09:03:45;;;;;;;8.30;7.50;;;;;;;16.09;65.99;99331.88;2058279;86;20944;-78
2021/10/02 09:06:45;;;;;;;8.30;7.55;;;;;;;16.19;65.76;99324.82;2059907;86;21028;-79
2021/10/02 09:09:46;;;;;;;8.18;7.30;;;;;;;16.29;65.57;99310.73;2110886;84;21019;-79
2021/10/02 09:12:47;;;;;;;7.97;7.17;;;;;;;16.43;65.17;99315.51;2111376;84;21304;-79
2021/10/02 09:15:47;;;;;;;8.30;7.53;;;;;;;16.54;64.21;99315.49;2063388;85;20921;-79
2021/10/02 09:18:48;;;;;;;12.40;8.55;;;;;;;16.66;64.79;99322.50;2062657;86;21040;-80
2021/10/02 09:21:48;;;;;;;10.23;7.90;;;;;;;16.89;65.01;99304.79;2062702;86;20968;-78
2021/10/02 09:24:49;;;;;;;166.90;20.50;;;;;;;17.15;64.59;99308.56;2062513;86;20953;-78
2021/10/02 09:27:49;;;;;;;10.45;8.95;;;;;;;17.24;63.56;99300.58;2111140;84;21202;-78
2021/10/02 09:30:50;;;;;;;13.88;9.10;;;;;;;17.29;63.05;99311.10;2111079;84;21387;-78
2021/10/02 09:33:50;;;;;;;10.48;9.33;;;;;;;17.34;63.33;99298.75;2111071;84;20897;-78
2021/10/02 09:36:51;;;;;;;14.25;8.48;;;;;;;17.44;62.20;99301.77;2110858;84;20956;-78
2021/10/02 09:39:51;;;;;;;10.53;8.90;;;;;;;17.49;62.08;99303.93;2110993;84;20933;-78
2021/10/02 09:42:52;;;;;;;10.78;9.68;;;;;;;17.59;61.35;99295.48;2111110;84;21292;-78
2021/10/02 09:45:52;;;;;;;9.23;8.18;;;;;;;17.66;62.48;99298.09;2110750;84;20960;-79
2021/10/02 09:48:56;;;;;;;9.33;8.43;;;;;;;17.88;61.56;99292.59;2110387;84;21047;-79
2021/10/02 09:51:55;;;;;;;10.93;9.85;;;;;;;18.03;61.37;99288.46;2062403;86;20969;-78
2021/10/02 09:54:56;;;;;;;9.63;8.73;;;;;;;18.13;61.08;99287.02;2063471;85;21380;-78
2021/10/02 09:57:56;;;;;;;11.30;10.15;;;;;;;18.29;59.70;99289.52;2063525;86;21391;-78
2021/10/02 10:00:57;;;;;;;14.58;10.50;;;;;;;18.30;59.72;99288.17;2063243;86;20932;-79
2021/10/02 10:03:58;;;;;;;13.75;9.95;;;;;;;18.33;59.42;99286.81;2061408;85;20959;-79
2021/10/02 10:06:58;;;;;;;13.55;10.72;;;;;;;18.39;59.47;99285.86;2106086;84;20964;-79
2021/10/02 10:09:59;;;;;;;13.08;10.18;;;;;;;18.50;59.38;99284.41;2098615;85;20988;-79
2021/10/02 10:13:00;;;;;;;13.65;9.90;;;;;;;18.66;59.47;99274.08;2098821;85;21640;-79
2021/10/02 10:16:01;;;;;;;11.60;9.83;;;;;;;18.75;58.97;99272.62;2098575;84;20992;-78
2021/10/02 10:19:01;;;;;;;12.40;11.10;;;;;;;18.82;58.09;99272.97;2098773;85;21336;-78
2021/10/02 10:22:01;;;;;;;12.25;10.50;;;;;;;18.72;58.84;99268.26;2099212;85;20992;-79
2021/10/02 10:25:02;;;;;;;20.60;16.07;;;;;;;18.90;58.87;99259.63;2098943;85;20980;-79
2021/10/02 10:28:04;;;;;;;22.48;12.40;;;;;;;19.09;58.30;99264.64;2098519;85;20949;-78
2021/10/02 10:31:05;;;;;;;14.78;11.57;;;;;;;19.08;56.67;99261.57;2098587;85;21012;-79
2021/10/02 10:34:05;;;;;;;17.00;12.90;;;;;;;19.20;56.39;99259.63;2098319;85;20917;-78
2021/10/02 10:37:06;;;;;;;14.45;10.63;;;;;;;19.29;56.48;99260.80;2098351;85;20985;-78
2021/10/02 10:40:06;;;;;;;13.15;10.95;;;;;;;19.37;55.58;99259.77;2098765;85;20982;-78
2021/10/02 10:43:07;;;;;;;16.40;11.53;;;;;;;19.26;56.47;99251.58;2098971;85;20945;-78
2021/10/02 10:46:07;;;;;;;12.53;11.33;;;;;;;19.34;55.64;99247.03;2099203;85;20948;-78
2021/10/02 10:49:08;;;;;;;12.05;10.85;;;;;;;19.53;56.04;99251.14;2098916;85;21028;-78
2021/10/02 10:52:13;;;;;;;16.30;12.47;;;;;;;19.67;54.66;99249.12;2099223;85;20988;-78
2021/10/02 10:55:10;;;;;;;14.38;12.75;;;;;;;19.84;54.95;99239.98;2098758;84;20948;-79
2021/10/02 10:58:11;;;;;;;14.23;12.53;;;;;;;20.11;53.77;99249.19;2099356;85;21028;-79
2021/10/02 11:01:12;;;;;;;17.57;11.85;;;;;;;20.29;53.73;99239.53;2099365;85;20957;-80
2021/10/02 11:04:12;;;;;;;19.73;12.98;;;;;;;20.38;52.87;99235.81;2098846;85;20943;-79
2021/10/02 11:07:15;;;;;;;15.60;11.38;;;;;;;20.55;52.35;99225.74;2100217;84;20984;-79
2021/10/02 11:10:15;;;;;;;17.12;13.75;;;;;;;20.57;51.43;99230.56;2103470;84;21011;-79
2021/10/02 11:13:15;;;;;;;14.65;11.48;;;;;;;20.45;51.80;99222.42;2103291;84;20921;-79
2021/10/02 11:16:16;;;;;;;17.95;12.60;;;;;;;20.73;51.85;99217.82;2103780;84;20905;-78
2021/10/02 11:19:16;;;;;;;17.57;14.10;;;;;;;20.93;50.61;99218.25;2103554;84;20973;-78
2021/10/02 11:22:18;;;;;;;15.95;13.28;;;;;;;20.92;51.08;99218.70;2103530;85;20933;-79
2021/10/02 11:25:18;;;;;;;16.48;12.50;;;;;;;20.91;51.06;99220.95;2103711;84;20986;-78
2021/10/02 11:28:19;;;;;;;15.08;13.48;;;;;;;20.94;51.81;99214.23;2103513;84;20976;-80
2021/10/02 11:34:22;;;;;;;18.67;12.55;;;;;;;21.15;51.69;99209.31;2087475;85;21725;-80
2021/10/02 11:37:22;;;;;;;16.12;11.53;;;;;;;21.27;51.02;99206.38;2103913;84;20968;-82
2021/10/02 11:40:23;;;;;;;19.60;12.73;;;;;;;21.43;51.53;99208.17;2103925;84;20929;-81
2021/10/02 11:43:24;;;;;;;21.25;13.30;;;;;;;21.53;50.58;99203.91;2103917;85;21356;-81
2021/10/02 11:46:25;;;;;;;17.42;12.55;;;;;;;21.55;51.10;99202.08;2104100;84;20949;-82
2021/10/02 11:49:25;;;;;;;13.68;12.35;;;;;;;21.69;50.20;99211.49;2103895;84;21040;-81
2021/10/02 11:52:26;;;;;;;15.93;13.08;;;;;;;21.54;50.54;99203.00;2103759;84;20948;-81
2021/10/02 11:55:26;;;;;;;15.55;12.70;;;;;;;21.63;50.69;99207.19;2103850;84;20913;-80
2021/10/02 11:58:27;;;;;;;18.48;12.40;;;;;;;21.69;50.46;99210.17;2103963;84;20940;-81
2021/10/02 12:01:27;;;;;;;16.37;12.23;;;;;;;21.71;51.21;99211.00;2103884;84;20957;-80
2021/10/02 12:04:28;;;;;;;13.30;11.70;;;;;;;21.69;50.38;99199.09;2103567;84;21316;-79
2021/10/02 12:07:28;;;;;;;13.08;11.25;;;;;;;21.82;50.36;99208.91;2105819;84;20965;-81
2021/10/02 12:10:29;;;;;;;15.53;11.95;;;;;;;21.78;49.59;99200.61;2110252;84;20972;-82
2021/10/02 12:13:29;;;;;;;15.90;12.60;;;;;;;21.70;49.44;99194.19;2110809;84;20953;-80
2021/10/02 12:16:30;;;;;;;17.00;12.37;;;;;;;21.59;48.84;99195.77;2110101;84;20972;-81
2021/10/02 12:19:30;;;;;;;15.45;11.33;;;;;;;21.53;50.03;99198.59;2110367;84;21004;-82
2021/10/02 12:22:31;;;;;;;13.68;10.15;;;;;;;21.58;49.37;99198.47;2110951;84;20951;-83
2021/10/02 12:25:31;;;;;;;16.75;11.30;;;;;;;21.54;47.94;99201.66;2110747;84;21380;-81
2021/10/02 12:28:32;;;;;;;14.63;11.10;;;;;;;21.53;48.85;99191.95;2110302;84;20925;-82
2021/10/02 12:31:32;;;;;;;14.93;10.88;;;;;;;21.63;48.13;99190.80;2110306;84;20978;-83
2021/10/02 12:34:33;;;;;;;16.20;11.18;;;;;;;21.62;48.20;99190.38;2110455;84;20967;-81
2021/10/02 12:37:33;;;;;;;12.43;11.25;;;;;;;21.63;48.81;99196.11;2109949;84;20932;-83
2021/10/02 12:40:34;;;;;;;12.78;11.25;;;;;;;21.56;48.75;99189.67;2109924;84;21359;-82
2021/10/02 12:43:34;;;;;;;12.90;11.12;;;;;;;21.52;49.36;99192.87;2109758;84;21562;-83
2021/10/02 12:46:35;;;;;;;14.50;11.43;;;;;;;21.43;47.52;99187.80;2109830;84;20957;-82
2021/10/02 12:49:35;;;;;;;13.40;11.88;;;;;;;21.24;49.38;99182.56;2109717;84;21058;-81
2021/10/02 12:52:36;;;;;;;12.73;10.98;;;;;;;21.17;49.94;99184.92;2110092;84;20953;-83
2021/10/02 12:55:37;;;;;;;16.45;11.85;;;;;;;21.18;48.93;99180.91;2110570;84;21312;-82
2021/10/02 12:58:37;;;;;;;15.43;12.35;;;;;;;21.26;50.04;99183.39;2110760;84;20941;-81
2021/10/02 13:01:38;;;;;;;14.33;12.78;;;;;;;21.29;48.54;99180.20;2110843;84;20905;-80
2021/10/02 13:04:39;;;;;;;16.17;12.28;;;;;;;21.11;49.87;99181.09;2110480;84;20933;-82
2021/10/02 13:07:42;;;;;;;14.53;12.85;;;;;;;21.09;50.04;99180.27;2093813;84;21032;-80
2021/10/02 13:10:42;;;;;;;16.67;13.83;;;;;;;21.28;50.12;99169.16;2060490;85;21029;-82
2021/10/02 13:13:43;;;;;;;19.48;12.45;;;;;;;21.49;49.53;99168.17;2060802;85;20946;-81
2021/10/02 13:16:43;;;;;;;28.45;24.52;;;;;;;21.50;48.33;99173.45;2060805;86;20969;-82
2021/10/02 13:19:44;;;;;;;17.57;12.95;;;;;;;21.43;49.63;99166.56;2060337;86;20990;-81
2021/10/02 13:22:44;;;;;;;17.80;11.90;;;;;;;21.45;48.90;99164.73;2060675;86;20982;-82
2021/10/02 13:25:45;;;;;;;13.08;11.78;;;;;;;21.47;49.23;99163.36;2060621;85;20980;-82
2021/10/02 13:28:45;;;;;;;12.90;11.33;;;;;;;21.45;50.11;99164.73;2060462;86;21454;-81
2021/10/02 13:31:46;;;;;;;12.95;10.78;;;;;;;21.46;50.52;99165.14;2060310;85;20945;-82
2021/10/02 13:34:46;;;;;;;15.93;11.83;;;;;;;21.56;47.52;99161.33;2060394;86;20926;-81
2021/10/02 13:37:47;;;;;;;13.38;10.53;;;;;;;21.48;47.93;99161.99;2060670;85;20937;-82
2021/10/02 13:40:47;;;;;;;14.35;11.55;;;;;;;21.47;49.25;99160.70;2060809;86;20921;-82
2021/10/02 13:43:48;;;;;;;12.23;9.88;;;;;;;21.33;48.22;99155.77;2060798;86;20945;-82
2021/10/02 13:46:48;;;;;;;13.80;10.53;;;;;;;21.20;48.22;99166.27;2060982;86;21305;-82
2021/10/02 13:49:49;;;;;;;12.78;11.38;;;;;;;20.98;48.72;99165.48;2060789;86;21029;-82
2021/10/02 13:52:49;;;;;;;13.03;11.12;;;;;;;20.89;49.35;99165.71;2060980;86;20953;-81
2021/10/02 13:55:50;;;;;;;13.05;11.73;;;;;;;20.83;50.57;99164.99;2060688;86;20952;-82
2021/10/02 13:58:50;;;;;;;15.25;11.20;;;;;;;20.81;50.66;99165.03;2060700;86;20968;-82
2021/10/02 14:01:51;;;;;;;17.82;14.83;;;;;;;20.87;49.57;99161.35;2060834;85;20932;-82
2021/10/02 14:04:51;;;;;;;12.35;11.10;;;;;;;20.82;49.21;99165.45;2060965;86;20940;-81
2021/10/02 14:07:52;;;;;;;12.23;11.12;;;;;;;20.91;49.42;99165.67;2060804;85;20973;-83
2021/10/02 14:10:52;;;;;;;12.73;11.43;;;;;;;20.92;48.74;99162.98;2060788;85;20977;-80
2021/10/02 14:13:53;;;;;;;12.95;11.57;;;;;;;20.81;49.83;99166.81;2060903;86;20917;-80
2021/10/02 14:16:53;;;;;;;15.10;11.03;;;;;;;20.92;50.88;99169.62;2060845;86;20929;-80
2021/10/02 14:19:54;;;;;;;13.80;11.48;;;;;;;21.09;50.92;99161.69;2060826;86;21020;-81
2021/10/02 14:22:54;;;;;;;14.28;11.55;;;;;;;21.22;49.45;99161.36;2060695;86;21285;-82
2021/10/02 14:25:55;;;;;;;14.20;10.98;;;;;;;21.22;49.07;99153.81;2060841;85;20993;-82
2021/10/02 14:28:55;;;;;;;19.25;11.30;;;;;;;21.18;49.55;99151.70;2060306;86;20957;-82
2021/10/02 14:31:56;;;;;;;13.43;12.13;;;;;;;21.14;49.29;99157.13;2060633;86;20996;-81
2021/10/02 14:34:56;;;;;;;18.17;13.22;;;;;;;21.07;49.76;99158.20;2060410;86;20950;-82
2021/10/02 14:37:57;;;;;;;13.75;12.07;;;;;;;21.04;48.85;99162.26;2060618;86;20961;-81
2021/10/02 14:40:57;;;;;;;13.68;12.20;;;;;;;21.02;49.72;99159.64;2060690;85;21024;-83
2021/10/02 14:43:58;;;;;;;18.15;14.00;;;;;;;20.95;49.74;99160.25;2060570;86;21625;-81
2021/10/02 14:46:58;;;;;;;17.05;13.98;;;;;;;20.89;49.17;99169.70;2060607;86;21009;-81
2021/10/02 14:49:59;;;;;;;17.20;12.70;;;;;;;20.70;50.05;99173.67;2060036;85;20973;-81
2021/10/02 14:52:59;;;;;;;13.25;10.48;;;;;;;20.66;51.78;99169.34;2060825;86;20918;-82
2021/10/02 14:56:00;;;;;;;12.23;11.03;;;;;;;20.70;49.83;99168.81;2060771;85;20933;-81